createdAt,value
2019-03-26T00:06:19.691Z,6.27
2019-03-26T00:16:20.408Z,6.64
2019-03-26T00:26:21.210Z,6.20
2019-03-26T00:36:21.810Z,6.04
2019-03-26T00:46:24.544Z,6.05
2019-03-26T00:56:25.324Z,6.38
2019-03-26T01:06:26.262Z,7.06
2019-03-26T01:16:26.882Z,7.09
2019-03-26T01:26:27.668Z,7.08
2019-03-26T01:36:28.295Z,7.30
2019-03-26T01:46:28.970Z,6.76
2019-03-26T01:56:29.793Z,7.27
2019-03-26T02:06:30.631Z,7.04
2019-03-26T02:16:31.410Z,7.29
2019-03-26T02:26:32.300Z,7.62
2019-03-26T02:36:32.949Z,7.64
2019-03-26T02:46:34.640Z,7.09
2019-03-26T02:56:38.302Z,8.04
2019-03-26T03:06:39.048Z,9.31
2019-03-26T03:16:39.836Z,7.53
2019-03-26T03:26:40.619Z,7.68
2019-03-26T03:36:41.268Z,7.98
2019-03-26T03:46:43.806Z,7.28
2019-03-26T03:56:47.697Z,7.65
2019-03-26T04:06:48.412Z,6.77
2019-03-26T04:16:50.055Z,6.90
2019-03-26T04:26:51.810Z,6.91
2019-03-26T04:36:52.488Z,6.70
2019-03-26T04:46:53.330Z,6.99
2019-03-26T04:56:56.011Z,6.82
2019-03-26T05:06:56.813Z,7.02
2019-03-26T05:16:57.507Z,6.86
2019-03-26T05:26:58.213Z,7.32
2019-03-26T05:36:58.871Z,7.07
2019-03-26T05:47:01.667Z,7.07
2019-03-26T05:57:02.371Z,7.20
2019-03-26T06:07:05.012Z,6.99
2019-03-26T06:17:06.760Z,7.37
2019-03-26T06:27:07.545Z,7.41
2019-03-26T06:37:17.906Z,7.08
2019-03-26T06:47:10.915Z,7.42
2019-03-26T06:57:11.716Z,7.34
2019-03-26T07:07:12.519Z,7.17
2019-03-26T07:17:13.235Z,7.41
2019-03-26T07:27:14.010Z,7.60
2019-03-26T07:37:14.918Z,8.38
2019-03-26T07:47:15.721Z,8.02
2019-03-26T07:57:17.506Z,6.87
2019-03-26T08:07:18.435Z,6.88
2019-03-26T08:17:22.179Z,6.81
2019-03-26T08:27:22.849Z,7.45
2019-03-26T08:37:24.575Z,8.20
2019-03-26T08:47:25.350Z,7.66
2019-03-26T08:57:26.159Z,6.89
2019-03-26T09:07:26.886Z,8.11
2019-03-26T09:17:27.639Z,7.91
2019-03-26T09:27:28.370Z,7.11
2019-03-26T09:37:29.090Z,8.23
2019-03-26T09:47:30.892Z,8.39
2019-03-26T09:57:31.675Z,8.44
2019-03-26T10:07:32.466Z,8.76
2019-03-26T10:17:35.005Z,8.83
2019-03-26T10:27:48.755Z,8.47
2019-03-26T10:37:49.543Z,8.57
2019-03-26T10:47:50.383Z,8.64
2019-03-26T10:57:51.147Z,8.80
2019-03-26T11:07:51.843Z,8.65
2019-03-26T11:17:52.743Z,8.75
2019-03-26T11:27:55.451Z,9.36
2019-03-26T11:37:56.216Z,9.32
2019-03-26T11:47:56.980Z,9.54
2019-03-26T11:57:57.772Z,9.89
2019-03-26T12:07:59.519Z,8.86
2019-03-26T12:18:02.472Z,9.20
2019-03-26T12:28:03.178Z,9.29
2019-03-26T12:38:14.155Z,9.82
2019-03-26T12:48:14.839Z,9.65
2019-03-26T12:58:15.576Z,10.64
2019-03-26T13:08:16.394Z,10.07
2019-03-26T13:18:21.161Z,9.96
2019-03-26T13:28:22.659Z,10.85
2019-03-26T13:38:29.412Z,10.42
2019-03-26T13:48:32.517Z,10.21
2019-03-26T13:58:45.482Z,9.93
2019-03-26T14:08:46.351Z,9.47
2019-03-26T14:18:47.031Z,10.05
2019-03-26T14:28:47.672Z,10.19
2019-03-26T14:38:50.416Z,10.05
2019-03-26T14:48:51.043Z,10.07
2019-03-26T14:58:54.833Z,9.68
2019-03-26T15:08:55.536Z,10.03
2019-03-26T15:18:56.268Z,9.89
2019-03-26T15:28:57.018Z,10.14
2019-03-26T15:39:05.811Z,9.70
2019-03-26T15:49:06.646Z,10.18
2019-03-26T15:59:07.377Z,9.74
2019-03-26T16:09:08.280Z,10.18
2019-03-26T16:19:08.895Z,10.26
2019-03-26T16:29:09.749Z,10.06
2019-03-26T16:39:10.496Z,10.00
2019-03-26T16:49:11.306Z,9.63
2019-03-26T16:59:12.020Z,9.22
2019-03-26T17:09:13.712Z,9.89
2019-03-26T17:19:14.462Z,9.36
2019-03-26T17:29:16.252Z,9.76
2019-03-26T17:39:17.193Z,9.70
2019-03-26T17:49:18.881Z,9.64
2019-03-26T17:59:19.580Z,9.65
2019-03-26T18:09:20.492Z,10.29
2019-03-26T18:19:22.171Z,9.84
2019-03-26T18:29:23.867Z,10.29
2019-03-26T18:39:24.734Z,10.30
2019-03-26T18:49:25.419Z,10.56
2019-03-26T18:59:33.006Z,10.63
2019-03-26T19:09:33.713Z,10.14
2019-03-26T19:19:34.456Z,10.12
2019-03-26T19:29:37.182Z,9.74
2019-03-26T19:39:37.877Z,9.66
2019-03-26T19:49:38.635Z,9.73
2019-03-26T19:59:39.409Z,9.78
2019-03-26T20:09:41.318Z,10.00
2019-03-26T20:19:42.104Z,10.14
2019-03-26T20:29:54.797Z,10.05
2019-03-26T20:39:55.619Z,11.03
2019-03-26T20:49:59.442Z,11.57
2019-03-26T21:00:00.578Z,12.29
2019-03-26T21:10:02.186Z,11.43
2019-03-26T21:20:06.391Z,10.04
2019-03-26T21:30:13.975Z,9.34
2019-03-26T21:40:16.101Z,9.55
2019-03-26T21:50:17.792Z,10.43
2019-03-26T22:00:18.592Z,9.39
2019-03-26T22:10:20.434Z,9.91
2019-03-26T22:20:21.096Z,10.28
2019-03-26T22:30:22.088Z,10.30
2019-03-26T22:40:25.928Z,10.88
2019-03-26T22:50:26.665Z,12.00
2019-03-26T23:00:28.431Z,12.26
2019-03-26T23:10:29.299Z,11.96
2019-03-26T23:20:30.056Z,12.05
2019-03-26T23:30:30.848Z,12.62
2019-03-26T23:40:31.563Z,11.22
2019-03-26T23:50:32.836Z,10.62
